Eurocargo Valencia — IBGZ — position and weather

sailwx.info

Track history (hours):
 
Tides and Currents Weather Stations Pressure Air Temp Water Temp Dewpoint Dewpoint Depression Visibility Wind Speed Wind Dir Waves Ship Positions

Eurocargo Valencia

Last reported at 2017-Jan-20 05:31 UTC. Time now 2017-Jan-20 07:54 UTC.
Position N 39°06' E 015°19'.

Length 196 m; draft 6.4 m.

Type: Cargo ship. MMSI: 247579000.

Date/timePositionNaut miles runAvg speedWind from/ knotsBaromVisibWave heightAir tempDewpointWater temp
2017-Jan-20 05:31N 39°06' E 015°19'1616.7
2017-Jan-20 04:33N 38°51' E 015°26'1616.6
2017-Jan-20 03:34N 38°35' E 015°34'1716.9
2017-Jan-20 02:34N 38°20' E 015°42'1515.5
2017-Jan-20 01:34N 38°06' E 015°35'1717.3
2017-Jan-20 00:33N 37°50' E 015°24'22 1.8
2017-Jan-19 12:19N 37°31' E 015°12'1216.7
2017-Jan-19 11:34N 37°42' E 015°19'1717.0
2017-Jan-19 10:33N 37°57' E 015°28'1717.0
2017-Jan-19 09:34N 38°13' E 015°36'1414.1
2017-Jan-19 08:33N 38°27' E 015°36'1817.4
2017-Jan-19 07:32N 38°44' E 015°28'1917.4
2017-Jan-19 06:28N 39°01' E 015°20'4 0.2
2017-Jan-18 03:32N 39°05' E 015°19'1716.8
2017-Jan-18 02:30N 38°49' E 015°27'1616.8
2017-Jan-18 01:33N 38°35' E 015°35'1716.8
2017-Jan-18 00:33N 38°19' E 015°42'1515.1
2017-Jan-17 23:33N 38°05' E 015°34'1616.3
2017-Jan-17 22:33N 37°51' E 015°25'1716.7
2017-Jan-17 21:32N 37°35' E 015°15'5 0.4
2017-Jan-17 09:32N 37°31' E 015°12'1616.1
2017-Jan-17 08:33N 37°45' E 015°21'1616.2
2017-Jan-17 07:34N 37°60' E 015°29'1312.9
2017-Jan-17 06:33N 38°12' E 015°35'1212.2
2017-Jan-17 05:33N 38°23' E 015°41'1615.7
2017-Jan-17 04:34N 38°39' E 015°40'1716.5
2017-Jan-17 03:33N 38°55' E 015°36'11 0.2
2017-Jan-15 03:32N 38°59' E 015°23'1515.8
2017-Jan-15 02:33N 38°45' E 015°30'1616.1
2017-Jan-15 01:33N 38°30' E 015°37'1514.5
2017-Jan-15 00:33N 38°15' E 015°40'1716.6
2017-Jan-14 23:34N 38°00' E 015°31'1717.3
2017-Jan-14 22:33N 37°45' E 015°21'19 1.5
2017-Jan-14 09:20N 37°29' E 015°06'7 8.7
2017-Jan-14 08:31N 37°33' E 015°13'1717.9
2017-Jan-14 07:33N 37°49' E 015°23'1817.7
2017-Jan-14 06:34N 38°04' E 015°33'1414.3
2017-Jan-14 05:33N 38°17' E 015°41'1717.3
2017-Jan-14 04:33N 38°34' E 015°37'1817.3
2017-Jan-14 03:33N 38°52' E 015°35'12 0.5
2017-Jan-13 01:31N 38°59' E 015°22'1818.2
2017-Jan-13 00:33N 38°43' E 015°30'1818.3
2017-Jan-12 23:33N 38°26' E 015°39'1414.0
2017-Jan-12 22:33N 38°12' E 015°37'1918.2
2017-Jan-12 21:32N 37°55' E 015°27'1818.2
2017-Jan-12 20:33N 37°39' E 015°17'10 1.0
2017-Jan-12 10:16N 37°30' E 015°11'1217.3
2017-Jan-12 09:33N 37°41' E 015°19'1817.6
2017-Jan-12 08:33N 37°57' E 015°28'1717.2
2017-Jan-12 07:33N 38°13' E 015°36'1111.0
2017-Jan-12 06:33N 38°24' E 015°38'1817.4
2017-Jan-12 05:32N 38°40' E 015°30'1817.9
2017-Jan-12 04:32N 38°57' E 015°22'12 0.5
2017-Jan-11 02:28N 39°09' E 015°19'1617.1
2017-Jan-11 01:33N 38°54' E 015°25'1817.6
2017-Jan-11 00:34N 38°37' E 015°34'1818.1
2017-Jan-10 23:33N 38°20' E 015°42'1515.1
2017-Jan-10 22:33N 38°06' E 015°35'1616.2
2017-Jan-10 21:33N 37°52' E 015°25'26 2.5
2017-Jan-10 11:09N 37°29' E 015°10'1117.7
2017-Jan-10 10:32N 37°38' E 015°17'1717.7
2017-Jan-10 09:33N 37°54' E 015°26'1817.7
2017-Jan-10 08:33N 38°10' E 015°35'1212.4
2017-Jan-10 07:33N 38°22' E 015°39'1413.9
2017-Jan-10 06:33N 38°35' E 015°33'1717.3
2017-Jan-10 05:33N 38°51' E 015°25'  
Track history (hours):
 
Tides and Currents Weather Stations Pressure Air Temp Water Temp Dewpoint Dewpoint Depression Visibility Wind Speed Wind Dir Waves Ship Positions

Eurocargo Valencia

Last reported at 2017-Jan-20 05:31 UTC. Time now 2017-Jan-20 07:54 UTC.
Position N 39°06' E 015°19'.

Length 196 m; draft 6.4 m.

Type: Cargo ship. MMSI: 247579000.

Date/timePositionNaut miles runAvg speedWind from/ knotsBaromVisibWave heightAir tempDewpointWater temp
2017-Jan-20 05:31N 39°06' E 015°19'1616.7
2017-Jan-20 04:33N 38°51' E 015°26'1616.6
2017-Jan-20 03:34N 38°35' E 015°34'1716.9
2017-Jan-20 02:34N 38°20' E 015°42'1515.5
2017-Jan-20 01:34N 38°06' E 015°35'1717.3
2017-Jan-20 00:33N 37°50' E 015°24'22 1.8
2017-Jan-19 12:19N 37°31' E 015°12'1216.7
2017-Jan-19 11:34N 37°42' E 015°19'1717.0
2017-Jan-19 10:33N 37°57' E 015°28'1717.0
2017-Jan-19 09:34N 38°13' E 015°36'1414.1
2017-Jan-19 08:33N 38°27' E 015°36'1817.4
2017-Jan-19 07:32N 38°44' E 015°28'1917.4
2017-Jan-19 06:28N 39°01' E 015°20'4 0.2
2017-Jan-18 03:32N 39°05' E 015°19'1716.8
2017-Jan-18 02:30N 38°49' E 015°27'1616.8
2017-Jan-18 01:33N 38°35' E 015°35'1716.8
2017-Jan-18 00:33N 38°19' E 015°42'1515.1
2017-Jan-17 23:33N 38°05' E 015°34'1616.3
2017-Jan-17 22:33N 37°51' E 015°25'1716.7
2017-Jan-17 21:32N 37°35' E 015°15'5 0.4
2017-Jan-17 09:32N 37°31' E 015°12'1616.1
2017-Jan-17 08:33N 37°45' E 015°21'1616.2
2017-Jan-17 07:34N 37°60' E 015°29'1312.9
2017-Jan-17 06:33N 38°12' E 015°35'1212.2
2017-Jan-17 05:33N 38°23' E 015°41'1615.7
2017-Jan-17 04:34N 38°39' E 015°40'1716.5
2017-Jan-17 03:33N 38°55' E 015°36'11 0.2
2017-Jan-15 03:32N 38°59' E 015°23'1515.8
2017-Jan-15 02:33N 38°45' E 015°30'1616.1
2017-Jan-15 01:33N 38°30' E 015°37'1514.5
2017-Jan-15 00:33N 38°15' E 015°40'1716.6
2017-Jan-14 23:34N 38°00' E 015°31'1717.3
2017-Jan-14 22:33N 37°45' E 015°21'19 1.5
2017-Jan-14 09:20N 37°29' E 015°06'7 8.7
2017-Jan-14 08:31N 37°33' E 015°13'1717.9
2017-Jan-14 07:33N 37°49' E 015°23'1817.7
2017-Jan-14 06:34N 38°04' E 015°33'1414.3
2017-Jan-14 05:33N 38°17' E 015°41'1717.3
2017-Jan-14 04:33N 38°34' E 015°37'1817.3
2017-Jan-14 03:33N 38°52' E 015°35'12 0.5
2017-Jan-13 01:31N 38°59' E 015°22'1818.2
2017-Jan-13 00:33N 38°43' E 015°30'1818.3
2017-Jan-12 23:33N 38°26' E 015°39'1414.0
2017-Jan-12 22:33N 38°12' E 015°37'1918.2
2017-Jan-12 21:32N 37°55' E 015°27'1818.2
2017-Jan-12 20:33N 37°39' E 015°17'10 1.0
2017-Jan-12 10:16N 37°30' E 015°11'1217.3
2017-Jan-12 09:33N 37°41' E 015°19'1817.6
2017-Jan-12 08:33N 37°57' E 015°28'1717.2
2017-Jan-12 07:33N 38°13' E 015°36'1111.0
2017-Jan-12 06:33N 38°24' E 015°38'1817.4
2017-Jan-12 05:32N 38°40' E 015°30'1817.9
2017-Jan-12 04:32N 38°57' E 015°22'12 0.5
2017-Jan-11 02:28N 39°09' E 015°19'1617.1
2017-Jan-11 01:33N 38°54' E 015°25'1817.6
2017-Jan-11 00:34N 38°37' E 015°34'1818.1
2017-Jan-10 23:33N 38°20' E 015°42'1515.1
2017-Jan-10 22:33N 38°06' E 015°35'1616.2
2017-Jan-10 21:33N 37°52' E 015°25'26 2.5
2017-Jan-10 11:09N 37°29' E 015°10'1117.7
2017-Jan-10 10:32N 37°38' E 015°17'1717.7
2017-Jan-10 09:33N 37°54' E 015°26'1817.7
2017-Jan-10 08:33N 38°10' E 015°35'1212.4
2017-Jan-10 07:33N 38°22' E 015°39'1413.9
2017-Jan-10 06:33N 38°35' E 015°33'1717.3
2017-Jan-10 05:33N 38°51' E 015°25'  

Dump ship's entire track history